sensor_id;sensor_type;location;lat;lon;timestamp;P1;durP1;ratioP1;P2;durP2;ratioP2
54261;SDS011;40174;52.364;6.452;2022-09-28T00:02:10;12.98;;;5.68;;
54261;SDS011;40174;52.364;6.452;2022-09-28T00:04:36;12.98;;;6.32;;
54261;SDS011;40174;52.364;6.452;2022-09-28T00:07:03;11.57;;;5.60;;
54261;SDS011;40174;52.364;6.452;2022-09-28T00:09:30;14.05;;;5.90;;
54261;SDS011;40174;52.364;6.452;2022-09-28T00:11:57;14.13;;;5.53;;
54261;SDS011;40174;52.364;6.452;2022-09-28T00:14:24;12.18;;;5.78;;
54261;SDS011;40174;52.364;6.452;2022-09-28T00:16:51;13.23;;;5.75;;
54261;SDS011;40174;52.364;6.452;2022-09-28T00:19:20;16.05;;;6.75;;
54261;SDS011;40174;52.364;6.452;2022-09-28T00:21:46;13.23;;;6.22;;
54261;SDS011;40174;52.364;6.452;2022-09-28T00:24:13;16.65;;;5.60;;
54261;SDS011;40174;52.364;6.452;2022-09-28T00:26:42;14.90;;;6.18;;
54261;SDS011;40174;52.364;6.452;2022-09-28T00:29:16;12.32;;;6.07;;
54261;SDS011;40174;52.364;6.452;2022-09-28T00:31:45;12.38;;;6.30;;
54261;SDS011;40174;52.364;6.452;2022-09-28T00:34:12;15.73;;;6.72;;
54261;SDS011;40174;52.364;6.452;2022-09-28T00:36:41;13.82;;;6.22;;
54261;SDS011;40174;52.364;6.452;2022-09-28T00:39:11;15.88;;;6.50;;
54261;SDS011;40174;52.364;6.452;2022-09-28T00:41:38;15.45;;;7.00;;
54261;SDS011;40174;52.364;6.452;2022-09-28T00:47:06;17.80;;;6.97;;
54261;SDS011;40174;52.364;6.452;2022-09-28T00:49:40;14.85;;;6.45;;
54261;SDS011;40174;52.364;6.452;2022-09-28T00:52:09;17.83;;;7.28;;
54261;SDS011;40174;52.364;6.452;2022-09-28T00:54:39;15.48;;;6.38;;
54261;SDS011;40174;52.364;6.452;2022-09-28T00:57:08;15.68;;;6.75;;
54261;SDS011;40174;52.364;6.452;2022-09-28T00:59:36;15.23;;;6.82;;
54261;SDS011;40174;52.364;6.452;2022-09-28T01:02:03;16.92;;;6.53;;
54261;SDS011;40174;52.364;6.452;2022-09-28T01:04:30;16.15;;;6.88;;
54261;SDS011;40174;52.364;6.452;2022-09-28T01:06:56;16.65;;;7.18;;
54261;SDS011;40174;52.364;6.452;2022-09-28T01:09:24;16.40;;;7.13;;
54261;SDS011;40174;52.364;6.452;2022-09-28T01:11:53;15.07;;;6.60;;
54261;SDS011;40174;52.364;6.452;2022-09-28T01:14:20;13.60;;;6.38;;
54261;SDS011;40174;52.364;6.452;2022-09-28T01:16:54;15.52;;;6.63;;
54261;SDS011;40174;52.364;6.452;2022-09-28T01:22:43;24.65;;;6.55;;
54261;SDS011;40174;52.364;6.452;2022-09-28T01:25:39;17.85;;;7.30;;
54261;SDS011;40174;52.364;6.452;2022-09-28T01:28:14;17.65;;;6.97;;
54261;SDS011;40174;52.364;6.452;2022-09-28T01:30:44;15.30;;;7.35;;
54261;SDS011;40174;52.364;6.452;2022-09-28T01:33:17;16.50;;;7.35;;
54261;SDS011;40174;52.364;6.452;2022-09-28T01:35:49;17.08;;;6.85;;
54261;SDS011;40174;52.364;6.452;2022-09-28T01:38:21;16.08;;;6.88;;
54261;SDS011;40174;52.364;6.452;2022-09-28T01:40:53;15.90;;;7.65;;
54261;SDS011;40174;52.364;6.452;2022-09-28T01:43:25;19.67;;;6.60;;
54261;SDS011;40174;52.364;6.452;2022-09-28T01:45:54;19.10;;;7.38;;
54261;SDS011;40174;52.364;6.452;2022-09-28T01:48:26;16.85;;;6.45;;
54261;SDS011;40174;52.364;6.452;2022-09-28T01:50:58;16.90;;;7.05;;
54261;SDS011;40174;52.364;6.452;2022-09-28T01:53:31;16.90;;;7.28;;
54261;SDS011;40174;52.364;6.452;2022-09-28T01:56:06;20.48;;;7.18;;
54261;SDS011;40174;52.364;6.452;2022-09-28T01:58:38;17.63;;;7.13;;
54261;SDS011;40174;52.364;6.452;2022-09-28T02:01:13;19.50;;;7.40;;
54261;SDS011;40174;52.364;6.452;2022-09-28T02:03:46;15.25;;;6.63;;
54261;SDS011;40174;52.364;6.452;2022-09-28T02:06:19;14.25;;;6.57;;
54261;SDS011;40174;52.364;6.452;2022-09-28T02:08:50;17.75;;;7.03;;
54261;SDS011;40174;52.364;6.452;2022-09-28T02:11:28;15.65;;;7.20;;
54261;SDS011;40174;52.364;6.452;2022-09-28T02:13:57;17.48;;;8.25;;
54261;SDS011;40174;52.364;6.452;2022-09-28T02:16:28;14.63;;;6.53;;
54261;SDS011;40174;52.364;6.452;2022-09-28T02:18:59;18.95;;;7.97;;
54261;SDS011;40174;52.364;6.452;2022-09-28T02:21:28;15.30;;;6.65;;
54261;SDS011;40174;52.364;6.452;2022-09-28T02:23:58;16.65;;;7.32;;
54261;SDS011;40174;52.364;6.452;2022-09-28T02:26:30;20.90;;;7.07;;
54261;SDS011;40174;52.364;6.452;2022-09-28T02:29:01;16.58;;;7.10;;
54261;SDS011;40174;52.364;6.452;2022-09-28T02:31:28;16.88;;;7.13;;
54261;SDS011;40174;52.364;6.452;2022-09-28T02:33:56;18.17;;;7.80;;
54261;SDS011;40174;52.364;6.452;2022-09-28T02:36:24;16.88;;;7.35;;
54261;SDS011;40174;52.364;6.452;2022-09-28T02:38:52;17.58;;;7.07;;
54261;SDS011;40174;52.364;6.452;2022-09-28T02:41:23;18.58;;;7.38;;
54261;SDS011;40174;52.364;6.452;2022-09-28T02:44:00;17.33;;;7.55;;
54261;SDS011;40174;52.364;6.452;2022-09-28T02:46:40;16.55;;;7.22;;
54261;SDS011;40174;52.364;6.452;2022-09-28T02:49:22;20.33;;;8.00;;
54261;SDS011;40174;52.364;6.452;2022-09-28T02:54:59;20.50;;;8.77;;
54261;SDS011;40174;52.364;6.452;2022-09-28T02:57:38;16.35;;;6.90;;
54261;SDS011;40174;52.364;6.452;2022-09-28T03:00:17;20.58;;;8.23;;
54261;SDS011;40174;52.364;6.452;2022-09-28T03:02:48;20.58;;;8.30;;
54261;SDS011;40174;52.364;6.452;2022-09-28T03:05:25;21.20;;;8.63;;
54261;SDS011;40174;52.364;6.452;2022-09-28T03:07:58;20.33;;;9.13;;
54261;SDS011;40174;52.364;6.452;2022-09-28T03:10:29;21.13;;;8.70;;
54261;SDS011;40174;52.364;6.452;2022-09-28T03:13:02;19.70;;;7.83;;
54261;SDS011;40174;52.364;6.452;2022-09-28T03:15:33;31.60;;;8.98;;
54261;SDS011;40174;52.364;6.452;2022-09-28T03:18:00;21.88;;;8.73;;
54261;SDS011;40174;52.364;6.452;2022-09-28T03:20:28;24.20;;;9.95;;
54261;SDS011;40174;52.364;6.452;2022-09-28T03:22:56;21.33;;;9.20;;
54261;SDS011;40174;52.364;6.452;2022-09-28T03:25:23;23.92;;;8.52;;
54261;SDS011;40174;52.364;6.452;2022-09-28T03:27:49;23.88;;;8.93;;
54261;SDS011;40174;52.364;6.452;2022-09-28T03:30:16;23.20;;;8.50;;
54261;SDS011;40174;52.364;6.452;2022-09-28T03:32:46;21.30;;;8.65;;
54261;SDS011;40174;52.364;6.452;2022-09-28T03:35:14;22.30;;;9.18;;
54261;SDS011;40174;52.364;6.452;2022-09-28T03:37:40;21.20;;;8.60;;
54261;SDS011;40174;52.364;6.452;2022-09-28T03:40:07;24.30;;;10.13;;
54261;SDS011;40174;52.364;6.452;2022-09-28T03:42:35;25.73;;;9.25;;
54261;SDS011;40174;52.364;6.452;2022-09-28T03:45:03;21.67;;;8.27;;
54261;SDS011;40174;52.364;6.452;2022-09-28T03:47:31;20.83;;;8.40;;
54261;SDS011;40174;52.364;6.452;2022-09-28T03:49:59;24.65;;;9.25;;
54261;SDS011;40174;52.364;6.452;2022-09-28T03:52:26;21.98;;;9.50;;
54261;SDS011;40174;52.364;6.452;2022-09-28T03:54:53;20.02;;;8.57;;
54261;SDS011;40174;52.364;6.452;2022-09-28T03:57:20;24.73;;;9.48;;
54261;SDS011;40174;52.364;6.452;2022-09-28T03:59:47;21.95;;;10.57;;
54261;SDS011;40174;52.364;6.452;2022-09-28T04:02:14;22.65;;;9.38;;
54261;SDS011;40174;52.364;6.452;2022-09-28T04:04:41;20.05;;;7.97;;
54261;SDS011;40174;52.364;6.452;2022-09-28T04:07:09;20.73;;;7.85;;
54261;SDS011;40174;52.364;6.452;2022-09-28T04:09:35;15.57;;;6.97;;
54261;SDS011;40174;52.364;6.452;2022-09-28T04:12:02;18.60;;;7.80;;
54261;SDS011;40174;52.364;6.452;2022-09-28T04:14:29;17.27;;;7.57;;
54261;SDS011;40174;52.364;6.452;2022-09-28T04:16:55;16.80;;;7.55;;
54261;SDS011;40174;52.364;6.452;2022-09-28T04:19:24;15.70;;;6.10;;
54261;SDS011;40174;52.364;6.452;2022-09-28T04:22:03;15.73;;;6.43;;
54261;SDS011;40174;52.364;6.452;2022-09-28T04:24:31;15.25;;;6.10;;
54261;SDS011;40174;52.364;6.452;2022-09-28T04:26:58;14.70;;;6.47;;
54261;SDS011;40174;52.364;6.452;2022-09-28T04:29:38;17.00;;;6.22;;
54261;SDS011;40174;52.364;6.452;2022-09-28T04:32:07;18.52;;;6.65;;
54261;SDS011;40174;52.364;6.452;2022-09-28T04:34:36;14.85;;;6.10;;
54261;SDS011;40174;52.364;6.452;2022-09-28T04:37:03;16.58;;;6.20;;
54261;SDS011;40174;52.364;6.452;2022-09-28T04:39:31;14.43;;;6.18;;
54261;SDS011;40174;52.364;6.452;2022-09-28T04:41:58;16.25;;;6.50;;
54261;SDS011;40174;52.364;6.452;2022-09-28T04:44:26;16.52;;;6.38;;
54261;SDS011;40174;52.364;6.452;2022-09-28T04:47:00;15.32;;;7.25;;
54261;SDS011;40174;52.364;6.452;2022-09-28T04:49:26;13.40;;;6.00;;
54261;SDS011;40174;52.364;6.452;2022-09-28T04:52:01;15.93;;;6.80;;
54261;SDS011;40174;52.364;6.452;2022-09-28T04:54:28;20.02;;;6.97;;
54261;SDS011;40174;52.364;6.452;2022-09-28T04:56:56;15.05;;;6.90;;
54261;SDS011;40174;52.364;6.452;2022-09-28T04:59:23;16.00;;;6.55;;
54261;SDS011;40174;52.364;6.452;2022-09-28T05:01:51;19.58;;;7.53;;
54261;SDS011;40174;52.364;6.452;2022-09-28T05:04:21;17.98;;;6.68;;
54261;SDS011;40174;52.364;6.452;2022-09-28T05:07:09;17.58;;;7.03;;
54261;SDS011;40174;52.364;6.452;2022-09-28T05:09:36;17.45;;;6.82;;
54261;SDS011;40174;52.364;6.452;2022-09-28T05:12:04;16.50;;;6.93;;
54261;SDS011;40174;52.364;6.452;2022-09-28T05:14:31;16.60;;;7.22;;
54261;SDS011;40174;52.364;6.452;2022-09-28T05:16:58;17.23;;;7.25;;
54261;SDS011;40174;52.364;6.452;2022-09-28T05:19:24;17.60;;;7.65;;
54261;SDS011;40174;52.364;6.452;2022-09-28T05:21:55;19.60;;;6.97;;
54261;SDS011;40174;52.364;6.452;2022-09-28T05:24:24;17.90;;;6.28;;
54261;SDS011;40174;52.364;6.452;2022-09-28T05:26:52;15.77;;;7.00;;
54261;SDS011;40174;52.364;6.452;2022-09-28T05:29:20;20.23;;;7.85;;
54261;SDS011;40174;52.364;6.452;2022-09-28T05:32:10;16.45;;;6.88;;
54261;SDS011;40174;52.364;6.452;2022-09-28T05:34:55;21.37;;;7.37;;
54261;SDS011;40174;52.364;6.452;2022-09-28T05:37:28;14.68;;;6.68;;
54261;SDS011;40174;52.364;6.452;2022-09-28T05:39:56;21.48;;;7.65;;
54261;SDS011;40174;52.364;6.452;2022-09-28T05:42:24;18.10;;;6.78;;
54261;SDS011;40174;52.364;6.452;2022-09-28T05:44:52;16.27;;;6.63;;
54261;SDS011;40174;52.364;6.452;2022-09-28T05:47:18;22.58;;;8.13;;
54261;SDS011;40174;52.364;6.452;2022-09-28T05:49:45;19.92;;;7.75;;
54261;SDS011;40174;52.364;6.452;2022-09-28T05:52:11;18.80;;;7.03;;
54261;SDS011;40174;52.364;6.452;2022-09-28T05:54:39;18.98;;;6.88;;
54261;SDS011;40174;52.364;6.452;2022-09-28T05:57:06;21.13;;;7.22;;
54261;SDS011;40174;52.364;6.452;2022-09-28T05:59:32;18.38;;;7.25;;
54261;SDS011;40174;52.364;6.452;2022-09-28T06:02:01;18.30;;;6.75;;
54261;SDS011;40174;52.364;6.452;2022-09-28T06:04:29;17.17;;;6.35;;
54261;SDS011;40174;52.364;6.452;2022-09-28T06:06:57;17.77;;;7.07;;
54261;SDS011;40174;52.364;6.452;2022-09-28T06:09:24;18.38;;;6.65;;
54261;SDS011;40174;52.364;6.452;2022-09-28T06:12:00;16.05;;;6.38;;
54261;SDS011;40174;52.364;6.452;2022-09-28T06:14:43;21.27;;;7.15;;
54261;SDS011;40174;52.364;6.452;2022-09-28T06:17:11;18.75;;;7.85;;
54261;SDS011;40174;52.364;6.452;2022-09-28T06:19:38;18.95;;;6.93;;
54261;SDS011;40174;52.364;6.452;2022-09-28T06:22:43;17.77;;;7.00;;
54261;SDS011;40174;52.364;6.452;2022-09-28T06:25:11;18.63;;;6.75;;
54261;SDS011;40174;52.364;6.452;2022-09-28T06:27:38;20.95;;;5.95;;
54261;SDS011;40174;52.364;6.452;2022-09-28T06:30:07;16.05;;;6.80;;
54261;SDS011;40174;52.364;6.452;2022-09-28T06:32:35;22.77;;;6.63;;
54261;SDS011;40174;52.364;6.452;2022-09-28T06:35:02;15.25;;;5.70;;
54261;SDS011;40174;52.364;6.452;2022-09-28T06:37:29;15.07;;;5.60;;
54261;SDS011;40174;52.364;6.452;2022-09-28T06:39:58;18.20;;;6.55;;
54261;SDS011;40174;52.364;6.452;2022-09-28T06:42:25;14.45;;;5.88;;
54261;SDS011;40174;52.364;6.452;2022-09-28T06:45:15;16.15;;;6.53;;
54261;SDS011;40174;52.364;6.452;2022-09-28T06:48:06;14.80;;;6.20;;
54261;SDS011;40174;52.364;6.452;2022-09-28T06:50:38;16.50;;;5.40;;
54261;SDS011;40174;52.364;6.452;2022-09-28T06:53:24;15.45;;;5.90;;
54261;SDS011;40174;52.364;6.452;2022-09-28T06:56:08;14.45;;;5.55;;
54261;SDS011;40174;52.364;6.452;2022-09-28T06:58:35;16.98;;;6.35;;
54261;SDS011;40174;52.364;6.452;2022-09-28T07:01:02;17.20;;;6.32;;
54261;SDS011;40174;52.364;6.452;2022-09-28T07:03:41;16.42;;;6.40;;
54261;SDS011;40174;52.364;6.452;2022-09-28T07:06:44;15.77;;;6.22;;
54261;SDS011;40174;52.364;6.452;2022-09-28T07:09:51;14.52;;;5.72;;
54261;SDS011;40174;52.364;6.452;2022-09-28T07:12:27;13.65;;;5.53;;
54261;SDS011;40174;52.364;6.452;2022-09-28T07:15:00;13.25;;;5.30;;
54261;SDS011;40174;52.364;6.452;2022-09-28T07:17:27;12.75;;;5.80;;
54261;SDS011;40174;52.364;6.452;2022-09-28T07:19:58;13.38;;;5.60;;
54261;SDS011;40174;52.364;6.452;2022-09-28T07:22:25;16.33;;;6.03;;
54261;SDS011;40174;52.364;6.452;2022-09-28T07:24:52;15.68;;;6.38;;
54261;SDS011;40174;52.364;6.452;2022-09-28T07:27:37;16.55;;;6.20;;
54261;SDS011;40174;52.364;6.452;2022-09-28T07:30:23;15.43;;;5.95;;
54261;SDS011;40174;52.364;6.452;2022-09-28T07:33:01;15.73;;;6.38;;
54261;SDS011;40174;52.364;6.452;2022-09-28T07:38:19;13.98;;;4.88;;
54261;SDS011;40174;52.364;6.452;2022-09-28T07:40:45;12.02;;;5.00;;
54261;SDS011;40174;52.364;6.452;2022-09-28T07:43:29;11.93;;;5.50;;
54261;SDS011;40174;52.364;6.452;2022-09-28T07:45:57;12.90;;;5.60;;
54261;SDS011;40174;52.364;6.452;2022-09-28T07:48:23;15.85;;;5.50;;
54261;SDS011;40174;52.364;6.452;2022-09-28T07:50:55;12.77;;;4.88;;
54261;SDS011;40174;52.364;6.452;2022-09-28T07:53:32;16.48;;;5.15;;
54261;SDS011;40174;52.364;6.452;2022-09-28T07:56:25;11.45;;;4.85;;
54261;SDS011;40174;52.364;6.452;2022-09-28T07:59:14;12.50;;;5.13;;
54261;SDS011;40174;52.364;6.452;2022-09-28T08:02:01;12.77;;;5.00;;
54261;SDS011;40174;52.364;6.452;2022-09-28T08:04:28;14.40;;;4.80;;
54261;SDS011;40174;52.364;6.452;2022-09-28T08:06:56;14.93;;;4.72;;
54261;SDS011;40174;52.364;6.452;2022-09-28T08:09:24;13.48;;;4.63;;
54261;SDS011;40174;52.364;6.452;2022-09-28T08:12:10;10.63;;;4.47;;
54261;SDS011;40174;52.364;6.452;2022-09-28T08:14:44;11.45;;;5.20;;
54261;SDS011;40174;52.364;6.452;2022-09-28T08:17:33;14.20;;;4.95;;
54261;SDS011;40174;52.364;6.452;2022-09-28T08:20:04;15.90;;;4.85;;
54261;SDS011;40174;52.364;6.452;2022-09-28T08:23:05;10.40;;;4.32;;
54261;SDS011;40174;52.364;6.452;2022-09-28T08:25:34;13.45;;;4.70;;
54261;SDS011;40174;52.364;6.452;2022-09-28T08:28:03;11.73;;;5.30;;
54261;SDS011;40174;52.364;6.452;2022-09-28T08:30:33;9.88;;;3.88;;
54261;SDS011;40174;52.364;6.452;2022-09-28T08:33:19;10.50;;;3.60;;
54261;SDS011;40174;52.364;6.452;2022-09-28T08:39:03;11.35;;;3.15;;
54261;SDS011;40174;52.364;6.452;2022-09-28T08:41:49;12.93;;;3.67;;
54261;SDS011;40174;52.364;6.452;2022-09-28T08:44:38;11.07;;;3.83;;
54261;SDS011;40174;52.364;6.452;2022-09-28T08:47:19;10.45;;;4.30;;
54261;SDS011;40174;52.364;6.452;2022-09-28T08:50:30;13.98;;;3.90;;
54261;SDS011;40174;52.364;6.452;2022-09-28T08:53:30;9.32;;;3.83;;
54261;SDS011;40174;52.364;6.452;2022-09-28T08:56:20;8.25;;;2.97;;
54261;SDS011;40174;52.364;6.452;2022-09-28T08:58:54;10.05;;;3.40;;
54261;SDS011;40174;52.364;6.452;2022-09-28T09:01:24;8.70;;;3.22;;
54261;SDS011;40174;52.364;6.452;2022-09-28T09:03:53;11.00;;;3.60;;
54261;SDS011;40174;52.364;6.452;2022-09-28T09:06:34;7.68;;;3.00;;
54261;SDS011;40174;52.364;6.452;2022-09-28T09:09:34;8.07;;;3.17;;
54261;SDS011;40174;52.364;6.452;2022-09-28T09:12:16;9.18;;;3.03;;
54261;SDS011;40174;52.364;6.452;2022-09-28T09:17:45;8.50;;;3.20;;
54261;SDS011;40174;52.364;6.452;2022-09-28T09:20:42;7.13;;;3.10;;
54261;SDS011;40174;52.364;6.452;2022-09-28T09:23:26;6.05;;;2.33;;
54261;SDS011;40174;52.364;6.452;2022-09-28T09:26:02;9.13;;;3.63;;
54261;SDS011;40174;52.364;6.452;2022-09-28T09:28:42;7.43;;;2.80;;
54261;SDS011;40174;52.364;6.452;2022-09-28T09:31:34;6.47;;;2.45;;
54261;SDS011;40174;52.364;6.452;2022-09-28T09:34:31;4.78;;;2.20;;
54261;SDS011;40174;52.364;6.452;2022-09-28T09:37:27;5.38;;;2.40;;
54261;SDS011;40174;52.364;6.452;2022-09-28T09:40:30;7.03;;;2.65;;
54261;SDS011;40174;52.364;6.452;2022-09-28T09:43:49;7.95;;;2.47;;
54261;SDS011;40174;52.364;6.452;2022-09-28T09:46:58;6.43;;;2.00;;
54261;SDS011;40174;52.364;6.452;2022-09-28T09:49:50;6.50;;;2.65;;
54261;SDS011;40174;52.364;6.452;2022-09-28T09:52:26;5.90;;;2.40;;
54261;SDS011;40174;52.364;6.452;2022-09-28T09:54:58;7.32;;;2.47;;
54261;SDS011;40174;52.364;6.452;2022-09-28T09:57:39;5.30;;;1.83;;
54261;SDS011;40174;52.364;6.452;2022-09-28T10:00:43;9.48;;;2.92;;
54261;SDS011;40174;52.364;6.452;2022-09-28T10:03:22;5.90;;;1.70;;
54261;SDS011;40174;52.364;6.452;2022-09-28T10:05:55;5.65;;;1.60;;
54261;SDS011;40174;52.364;6.452;2022-09-28T10:08:25;4.32;;;1.40;;
54261;SDS011;40174;52.364;6.452;2022-09-28T10:10:55;4.05;;;1.38;;
54261;SDS011;40174;52.364;6.452;2022-09-28T10:13:34;4.65;;;1.60;;
54261;SDS011;40174;52.364;6.452;2022-09-28T10:16:09;4.00;;;1.58;;
54261;SDS011;40174;52.364;6.452;2022-09-28T10:18:45;3.35;;;1.35;;
54261;SDS011;40174;52.364;6.452;2022-09-28T10:21:52;4.07;;;1.15;;
54261;SDS011;40174;52.364;6.452;2022-09-28T10:24:25;2.72;;;0.90;;
54261;SDS011;40174;52.364;6.452;2022-09-28T10:26:55;3.47;;;1.42;;
54261;SDS011;40174;52.364;6.452;2022-09-28T10:29:30;2.85;;;1.00;;
54261;SDS011;40174;52.364;6.452;2022-09-28T10:32:16;4.18;;;1.75;;
54261;SDS011;40174;52.364;6.452;2022-09-28T10:34:44;4.25;;;1.30;;
54261;SDS011;40174;52.364;6.452;2022-09-28T10:37:14;2.70;;;1.00;;
54261;SDS011;40174;52.364;6.452;2022-09-28T10:39:57;3.40;;;1.27;;
54261;SDS011;40174;52.364;6.452;2022-09-28T10:42:29;3.72;;;1.50;;
54261;SDS011;40174;52.364;6.452;2022-09-28T10:45:02;2.30;;;1.13;;
54261;SDS011;40174;52.364;6.452;2022-09-28T10:47:43;3.25;;;0.93;;
54261;SDS011;40174;52.364;6.452;2022-09-28T10:50:17;4.65;;;1.35;;
54261;SDS011;40174;52.364;6.452;2022-09-28T10:52:46;2.22;;;0.93;;
54261;SDS011;40174;52.364;6.452;2022-09-28T10:55:33;2.55;;;1.05;;
54261;SDS011;40174;52.364;6.452;2022-09-28T10:58:11;1.90;;;0.80;;
54261;SDS011;40174;52.364;6.452;2022-09-28T11:00:49;8.60;;;1.15;;
54261;SDS011;40174;52.364;6.452;2022-09-28T11:03:22;1.48;;;0.70;;
54261;SDS011;40174;52.364;6.452;2022-09-28T11:05:54;1.60;;;0.82;;
54261;SDS011;40174;52.364;6.452;2022-09-28T11:08:25;2.40;;;0.65;;
54261;SDS011;40174;52.364;6.452;2022-09-28T11:11:04;2.03;;;0.90;;
54261;SDS011;40174;52.364;6.452;2022-09-28T11:13:40;2.42;;;0.82;;
54261;SDS011;40174;52.364;6.452;2022-09-28T11:16:20;0.85;;;0.47;;
54261;SDS011;40174;52.364;6.452;2022-09-28T11:18:51;2.75;;;0.73;;
54261;SDS011;40174;52.364;6.452;2022-09-28T11:21:20;1.13;;;0.40;;
54261;SDS011;40174;52.364;6.452;2022-09-28T11:23:56;2.13;;;0.70;;
54261;SDS011;40174;52.364;6.452;2022-09-28T11:26:26;1.60;;;0.52;;
54261;SDS011;40174;52.364;6.452;2022-09-28T11:29:01;1.23;;;0.50;;
54261;SDS011;40174;52.364;6.452;2022-09-28T11:31:39;1.60;;;0.90;;
54261;SDS011;40174;52.364;6.452;2022-09-28T11:34:15;2.22;;;0.80;;
54261;SDS011;40174;52.364;6.452;2022-09-28T11:37:11;3.15;;;0.65;;
54261;SDS011;40174;52.364;6.452;2022-09-28T11:39:58;1.23;;;0.50;;
54261;SDS011;40174;52.364;6.452;2022-09-28T11:42:37;0.60;;;0.40;;
54261;SDS011;40174;52.364;6.452;2022-09-28T11:45:20;1.63;;;0.70;;
54261;SDS011;40174;52.364;6.452;2022-09-28T11:47:57;2.80;;;0.90;;
54261;SDS011;40174;52.364;6.452;2022-09-28T11:50:33;1.25;;;0.45;;
54261;SDS011;40174;52.364;6.452;2022-09-28T11:53:10;1.55;;;0.65;;
54261;SDS011;40174;52.364;6.452;2022-09-28T11:55:46;1.17;;;0.70;;
54261;SDS011;40174;52.364;6.452;2022-09-28T11:58:21;4.38;;;1.00;;
54261;SDS011;40174;52.364;6.452;2022-09-28T12:00:53;1.35;;;0.73;;
54261;SDS011;40174;52.364;6.452;2022-09-28T12:03:38;1.15;;;0.47;;
54261;SDS011;40174;52.364;6.452;2022-09-28T12:06:10;1.65;;;0.40;;
54261;SDS011;40174;52.364;6.452;2022-09-28T12:08:41;1.02;;;0.22;;
54261;SDS011;40174;52.364;6.452;2022-09-28T12:11:42;1.10;;;0.30;;
54261;SDS011;40174;52.364;6.452;2022-09-28T12:14:23;1.20;;;0.30;;
54261;SDS011;40174;52.364;6.452;2022-09-28T12:16:54;0.80;;;0.30;;
54261;SDS011;40174;52.364;6.452;2022-09-28T12:19:26;0.20;;;0.20;;
54261;SDS011;40174;52.364;6.452;2022-09-28T12:21:59;0.63;;;0.30;;
54261;SDS011;40174;52.364;6.452;2022-09-28T12:24:31;3.03;;;0.50;;
54261;SDS011;40174;52.364;6.452;2022-09-28T12:27:03;1.60;;;0.40;;
54261;SDS011;40174;52.364;6.452;2022-09-28T12:29:33;0.80;;;0.40;;
54261;SDS011;40174;52.364;6.452;2022-09-28T12:32:08;0.75;;;0.30;;
54261;SDS011;40174;52.364;6.452;2022-09-28T12:34:39;0.75;;;0.25;;
54261;SDS011;40174;52.364;6.452;2022-09-28T12:37:14;0.45;;;0.28;;
54261;SDS011;40174;52.364;6.452;2022-09-28T12:39:59;0.13;;;0.13;;
54261;SDS011;40174;52.364;6.452;2022-09-28T12:42:51;0.52;;;0.30;;
54261;SDS011;40174;52.364;6.452;2022-09-28T12:45:35;0.10;;;0.10;;
54261;SDS011;40174;52.364;6.452;2022-09-28T12:51:06;0.10;;;0.10;;
54261;SDS011;40174;52.364;6.452;2022-09-28T12:56:38;0.10;;;0.10;;
54261;SDS011;40174;52.364;6.452;2022-09-28T12:59:11;0.20;;;0.13;;
54261;SDS011;40174;52.364;6.452;2022-09-28T13:01:55;0.08;;;0.08;;
54261;SDS011;40174;52.364;6.452;2022-09-28T13:04:44;1.17;;;0.13;;
54261;SDS011;40174;52.364;6.452;2022-09-28T13:07:28;0.85;;;0.20;;
54261;SDS011;40174;52.364;6.452;2022-09-28T13:10:06;0.20;;;0.20;;
54261;SDS011;40174;52.364;6.452;2022-09-28T13:12:45;2.17;;;0.40;;
54261;SDS011;40174;52.364;6.452;2022-09-28T13:18:07;1.13;;;0.20;;
54261;SDS011;40174;52.364;6.452;2022-09-28T13:20:42;1.95;;;0.30;;
54261;SDS011;40174;52.364;6.452;2022-09-28T13:23:24;1.38;;;0.40;;
54261;SDS011;40174;52.364;6.452;2022-09-28T13:25:58;0.40;;;0.15;;
54261;SDS011;40174;52.364;6.452;2022-09-28T13:28:33;0.65;;;0.30;;
54261;SDS011;40174;52.364;6.452;2022-09-28T13:31:02;2.85;;;0.40;;
54261;SDS011;40174;52.364;6.452;2022-09-28T13:33:31;0.40;;;0.30;;
54261;SDS011;40174;52.364;6.452;2022-09-28T13:36:01;0.50;;;0.30;;
54261;SDS011;40174;52.364;6.452;2022-09-28T13:38:29;3.05;;;0.50;;
54261;SDS011;40174;52.364;6.452;2022-09-28T13:41:13;0.38;;;0.30;;
54261;SDS011;40174;52.364;6.452;2022-09-28T13:44:02;3.45;;;0.65;;
54261;SDS011;40174;52.364;6.452;2022-09-28T13:49:15;0.75;;;0.40;;
54261;SDS011;40174;52.364;6.452;2022-09-28T13:51:52;1.85;;;0.40;;
54261;SDS011;40174;52.364;6.452;2022-09-28T13:54:33;0.50;;;0.38;;
54261;SDS011;40174;52.364;6.452;2022-09-28T13:57:14;0.85;;;0.43;;
54261;SDS011;40174;52.364;6.452;2022-09-28T13:59:55;1.10;;;0.40;;
54261;SDS011;40174;52.364;6.452;2022-09-28T14:02:38;1.55;;;0.20;;
54261;SDS011;40174;52.364;6.452;2022-09-28T14:08:09;0.75;;;0.30;;
54261;SDS011;40174;52.364;6.452;2022-09-28T14:10:49;0.20;;;0.20;;
54261;SDS011;40174;52.364;6.452;2022-09-28T14:16:26;1.00;;;0.15;;
54261;SDS011;40174;52.364;6.452;2022-09-28T14:18:56;1.45;;;0.10;;
54261;SDS011;40174;52.364;6.452;2022-09-28T14:21:45;0.10;;;0.10;;
54261;SDS011;40174;52.364;6.452;2022-09-28T14:24:22;0.17;;;0.10;;
54261;SDS011;40174;52.364;6.452;2022-09-28T14:27:11;0.98;;;0.15;;
54261;SDS011;40174;52.364;6.452;2022-09-28T14:30:15;2.70;;;0.20;;
54261;SDS011;40174;52.364;6.452;2022-09-28T14:32:49;0.28;;;0.17;;
54261;SDS011;40174;52.364;6.452;2022-09-28T14:35:22;0.10;;;0.10;;
54261;SDS011;40174;52.364;6.452;2022-09-28T14:37:56;2.10;;;0.20;;
54261;SDS011;40174;52.364;6.452;2022-09-28T14:40:55;0.20;;;0.10;;
54261;SDS011;40174;52.364;6.452;2022-09-28T14:44:00;0.63;;;0.20;;
54261;SDS011;40174;52.364;6.452;2022-09-28T14:46:34;0.30;;;0.10;;
54261;SDS011;40174;52.364;6.452;2022-09-28T14:52:09;0.77;;;0.30;;
54261;SDS011;40174;52.364;6.452;2022-09-28T14:54:50;0.20;;;0.20;;
54261;SDS011;40174;52.364;6.452;2022-09-28T14:57:20;0.35;;;0.20;;
54261;SDS011;40174;52.364;6.452;2022-09-28T14:59:49;1.38;;;0.30;;
54261;SDS011;40174;52.364;6.452;2022-09-28T15:02:21;0.93;;;0.20;;
54261;SDS011;40174;52.364;6.452;2022-09-28T15:04:51;0.73;;;0.20;;
54261;SDS011;40174;52.364;6.452;2022-09-28T15:07:20;0.55;;;0.20;;
54261;SDS011;40174;52.364;6.452;2022-09-28T15:09:48;1.08;;;0.13;;
54261;SDS011;40174;52.364;6.452;2022-09-28T15:12:16;0.20;;;0.10;;
54261;SDS011;40174;52.364;6.452;2022-09-28T15:14:47;0.15;;;0.13;;
54261;SDS011;40174;52.364;6.452;2022-09-28T15:17:17;2.35;;;0.20;;
54261;SDS011;40174;52.364;6.452;2022-09-28T15:19:49;1.85;;;0.10;;
54261;SDS011;40174;52.364;6.452;2022-09-28T15:22:24;1.17;;;0.10;;
54261;SDS011;40174;52.364;6.452;2022-09-28T15:24:53;0.65;;;0.10;;
54261;SDS011;40174;52.364;6.452;2022-09-28T15:27:20;2.28;;;0.20;;
54261;SDS011;40174;52.364;6.452;2022-09-28T15:29:54;0.35;;;0.20;;
54261;SDS011;40174;52.364;6.452;2022-09-28T15:32:22;0.30;;;0.17;;
54261;SDS011;40174;52.364;6.452;2022-09-28T15:34:51;0.45;;;0.20;;
54261;SDS011;40174;52.364;6.452;2022-09-28T15:37:17;1.50;;;0.30;;
54261;SDS011;40174;52.364;6.452;2022-09-28T15:39:47;2.17;;;0.15;;
54261;SDS011;40174;52.364;6.452;2022-09-28T15:42:15;2.05;;;0.38;;
54261;SDS011;40174;52.364;6.452;2022-09-28T15:44:53;0.20;;;0.10;;
54261;SDS011;40174;52.364;6.452;2022-09-28T15:47:27;0.63;;;0.30;;
54261;SDS011;40174;52.364;6.452;2022-09-28T15:49:58;0.90;;;0.30;;
54261;SDS011;40174;52.364;6.452;2022-09-28T15:52:32;0.25;;;0.25;;
54261;SDS011;40174;52.364;6.452;2022-09-28T15:55:03;0.75;;;0.20;;
54261;SDS011;40174;52.364;6.452;2022-09-28T15:57:41;2.35;;;0.25;;
54261;SDS011;40174;52.364;6.452;2022-09-28T16:00:21;0.20;;;0.10;;
54261;SDS011;40174;52.364;6.452;2022-09-28T16:03:00;0.43;;;0.30;;
54261;SDS011;40174;52.364;6.452;2022-09-28T16:05:44;0.28;;;0.22;;